createdAt,value
2022-11-28T00:10:55.364Z,0
2022-11-28T00:25:51.602Z,0
2022-11-28T00:40:47.568Z,0
2022-11-28T00:55:44.221Z,0
2022-11-28T01:10:40.341Z,0
2022-11-28T01:20:37.914Z,0
2022-11-28T01:35:33.925Z,0
2022-11-28T01:50:36.063Z,0
2022-11-28T02:03:29.622Z,0
2022-11-28T02:18:20.288Z,0
2022-11-28T02:33:16.412Z,0
2022-11-28T02:48:12.855Z,0
2022-11-28T03:03:09.227Z,0
2022-11-28T03:18:05.504Z,0
2022-11-28T03:33:01.554Z,0
2022-11-28T03:47:57.607Z,0
2022-11-28T04:02:53.523Z,0
2022-11-28T04:17:50.243Z,0
2022-11-28T04:32:46.037Z,0
2022-11-28T04:47:42.652Z,0
2022-11-28T05:02:39.441Z,0
2022-11-28T05:17:39.074Z,0
2022-11-28T05:32:31.251Z,0
2022-11-28T05:47:27.810Z,0
2022-11-28T06:02:23.829Z,0
2022-11-28T06:17:20.175Z,0
2022-11-28T06:32:20.509Z,0.01
2022-11-28T06:47:12.064Z,0
2022-11-28T07:02:08.234Z,0.02
2022-11-28T07:17:04.313Z,0.02
2022-11-28T07:32:00.239Z,0.02
2022-11-28T07:46:56.220Z,0.03
2022-11-28T08:01:52.562Z,0.03
2022-11-28T08:16:48.927Z,0.06
2022-11-28T08:31:44.865Z,0.05
2022-11-28T08:46:41.886Z,0.07
2022-11-28T09:01:38.479Z,0.08
2022-11-28T09:16:34.737Z,0.08
2022-11-28T09:31:30.596Z,0.07
2022-11-28T09:46:27.450Z,0.08
2022-11-28T10:01:24.220Z,0.06
2022-11-28T10:16:20.667Z,0.06
2022-11-28T10:31:16.563Z,0.09
2022-11-28T10:46:13.080Z,0.08
2022-11-28T11:01:09.140Z,0.02
2022-11-28T11:16:05.258Z,0.09
2022-11-28T11:31:01.325Z,0.08
2022-11-28T11:40:51.663Z,0.06
2022-11-28T11:55:48.030Z,0.08
2022-11-28T12:10:44.470Z,0.1
2022-11-28T12:25:40.835Z,0.09
2022-11-28T12:40:36.835Z,0.09
2022-11-28T12:55:33.243Z,0.1
2022-11-28T13:10:29.728Z,0.08
2022-11-28T13:25:26.016Z,0.06
2022-11-28T13:40:22.482Z,0.06
2022-11-28T13:55:18.782Z,0.09
2022-11-28T14:10:15.549Z,0.1
2022-11-28T14:25:11.741Z,0.06
2022-11-28T14:28:19.552Z,0.03
2022-11-28T14:43:15.461Z,0.06
2022-11-28T14:58:12.119Z,0.06
2022-11-28T15:13:08.048Z,0.02
2022-11-28T15:28:04.232Z,0.02
2022-11-28T15:43:00.591Z,0.01
2022-11-28T15:57:56.910Z,0.02
2022-11-28T16:12:52.939Z,0.01
2022-11-28T16:27:48.929Z,0
2022-11-28T16:42:44.832Z,0
2022-11-28T16:57:40.936Z,0
2022-11-28T17:12:37.465Z,0
2022-11-28T17:27:33.756Z,0
2022-11-28T17:42:29.463Z,0.01
2022-11-28T17:57:25.532Z,0
2022-11-28T18:12:21.647Z,0
2022-11-28T18:27:17.937Z,0
2022-11-28T18:42:13.943Z,0
2022-11-28T18:57:09.979Z,0.01
2022-11-28T19:12:06.327Z,0
2022-11-28T19:27:02.604Z,0
2022-11-28T19:41:58.642Z,0
2022-11-28T19:56:55.013Z,0.01
2022-11-28T20:11:50.931Z,0
2022-11-28T20:26:47.001Z,0
2022-11-28T20:41:43.334Z,0
2022-11-28T20:56:58.250Z,0
2022-11-28T21:11:56.098Z,0
2022-11-28T21:26:35.038Z,0
2022-11-28T21:41:28.496Z,0
2022-11-28T21:56:24.628Z,0
2022-11-28T22:11:20.746Z,0
2022-11-28T22:26:16.956Z,0
2022-11-28T22:41:12.936Z,0
2022-11-28T22:56:09.148Z,0
2022-11-28T23:11:05.791Z,0
2022-11-28T23:26:05.040Z,0
2022-11-28T23:40:58.025Z,0
2022-11-28T23:55:54.325Z,0
